sensor_id;sensor_type;location;lat;lon;timestamp;temperature;humidity
9768;DHT22;4923;52.520;13.494;2023-02-28T00:00:13;2.30;1.00
9768;DHT22;4923;52.520;13.494;2023-02-28T00:03:00;2.30;1.00
9768;DHT22;4923;52.520;13.494;2023-02-28T00:05:48;2.30;1.00
9768;DHT22;4923;52.520;13.494;2023-02-28T00:08:36;2.30;1.00
9768;DHT22;4923;52.520;13.494;2023-02-28T00:11:23;2.30;1.00
9768;DHT22;4923;52.520;13.494;2023-02-28T00:14:09;2.30;1.00
9768;DHT22;4923;52.520;13.494;2023-02-28T00:16:56;2.30;1.00
9768;DHT22;4923;52.520;13.494;2023-02-28T00:19:43;2.30;1.00
9768;DHT22;4923;52.520;13.494;2023-02-28T00:22:31;2.30;1.00
9768;DHT22;4923;52.520;13.494;2023-02-28T00:25:20;2.30;1.00
9768;DHT22;4923;52.520;13.494;2023-02-28T00:28:07;2.20;1.00
9768;DHT22;4923;52.520;13.494;2023-02-28T00:30:54;2.30;1.00
9768;DHT22;4923;52.520;13.494;2023-02-28T00:33:41;2.30;1.00
9768;DHT22;4923;52.520;13.494;2023-02-28T00:36:27;2.30;1.00
9768;DHT22;4923;52.520;13.494;2023-02-28T00:39:16;2.20;1.00
9768;DHT22;4923;52.520;13.494;2023-02-28T00:42:03;2.20;1.00
9768;DHT22;4923;52.520;13.494;2023-02-28T00:44:50;2.20;1.00
9768;DHT22;4923;52.520;13.494;2023-02-28T00:47:37;2.20;1.00
9768;DHT22;4923;52.520;13.494;2023-02-28T00:50:24;2.20;1.00
9768;DHT22;4923;52.520;13.494;2023-02-28T00:53:11;2.20;1.00
9768;DHT22;4923;52.520;13.494;2023-02-28T00:55:59;2.10;1.00
9768;DHT22;4923;52.520;13.494;2023-02-28T00:58:46;2.10;1.00
9768;DHT22;4923;52.520;13.494;2023-02-28T01:01:33;2.10;1.00
9768;DHT22;4923;52.520;13.494;2023-02-28T01:04:20;2.00;1.00
9768;DHT22;4923;52.520;13.494;2023-02-28T01:07:07;2.00;1.00
9768;DHT22;4923;52.520;13.494;2023-02-28T01:09:54;2.00;1.00
9768;DHT22;4923;52.520;13.494;2023-02-28T01:12:42;1.90;1.00
9768;DHT22;4923;52.520;13.494;2023-02-28T01:15:29;2.00;1.00
9768;DHT22;4923;52.520;13.494;2023-02-28T01:18:17;1.90;1.00
9768;DHT22;4923;52.520;13.494;2023-02-28T01:21:05;1.90;1.00
9768;DHT22;4923;52.520;13.494;2023-02-28T01:23:51;1.80;1.00
9768;DHT22;4923;52.520;13.494;2023-02-28T01:26:38;1.80;1.00
9768;DHT22;4923;52.520;13.494;2023-02-28T01:29:27;1.70;1.00
9768;DHT22;4923;52.520;13.494;2023-02-28T01:32:13;1.60;1.00
9768;DHT22;4923;52.520;13.494;2023-02-28T01:35:00;1.60;1.00
9768;DHT22;4923;52.520;13.494;2023-02-28T01:37:47;1.60;1.00
9768;DHT22;4923;52.520;13.494;2023-02-28T01:40:34;1.50;1.00
9768;DHT22;4923;52.520;13.494;2023-02-28T01:43:23;1.50;1.00
9768;DHT22;4923;52.520;13.494;2023-02-28T01:46:12;1.30;1.00
9768;DHT22;4923;52.520;13.494;2023-02-28T01:49:04;1.20;1.00
9768;DHT22;4923;52.520;13.494;2023-02-28T01:51:54;1.20;1.00
9768;DHT22;4923;52.520;13.494;2023-02-28T01:54:41;1.10;1.00
9768;DHT22;4923;52.520;13.494;2023-02-28T01:57:30;0.90;1.00
9768;DHT22;4923;52.520;13.494;2023-02-28T02:00:25;0.90;1.00
9768;DHT22;4923;52.520;13.494;2023-02-28T02:03:16;0.80;1.00
9768;DHT22;4923;52.520;13.494;2023-02-28T02:06:04;0.70;1.00
9768;DHT22;4923;52.520;13.494;2023-02-28T02:08:51;0.60;1.00
9768;DHT22;4923;52.520;13.494;2023-02-28T02:11:39;0.60;1.00
9768;DHT22;4923;52.520;13.494;2023-02-28T02:14:37;0.50;1.00
9768;DHT22;4923;52.520;13.494;2023-02-28T02:17:33;0.40;1.00
9768;DHT22;4923;52.520;13.494;2023-02-28T02:20:50;0.30;1.00
9768;DHT22;4923;52.520;13.494;2023-02-28T02:24:18;0.20;1.00
9768;DHT22;4923;52.520;13.494;2023-02-28T02:27:19;0.10;1.00
9768;DHT22;4923;52.520;13.494;2023-02-28T02:30:29;0.00;1.00
9768;DHT22;4923;52.520;13.494;2023-02-28T02:33:45;0.00;1.00
9768;DHT22;4923;52.520;13.494;2023-02-28T02:36:42;-0.10;1.00
9768;DHT22;4923;52.520;13.494;2023-02-28T02:39:40;-0.20;1.00
9768;DHT22;4923;52.520;13.494;2023-02-28T02:42:33;-0.20;1.00
9768;DHT22;4923;52.520;13.494;2023-02-28T02:45:25;-0.30;1.00
9768;DHT22;4923;52.520;13.494;2023-02-28T02:48:18;-0.30;1.00
9768;DHT22;4923;52.520;13.494;2023-02-28T02:51:07;-0.40;1.00
9768;DHT22;4923;52.520;13.494;2023-02-28T02:54:02;-0.40;1.00
9768;DHT22;4923;52.520;13.494;2023-02-28T02:56:52;-0.50;1.00
9768;DHT22;4923;52.520;13.494;2023-02-28T02:59:40;-0.50;1.00
9768;DHT22;4923;52.520;13.494;2023-02-28T03:02:29;-0.50;1.00
9768;DHT22;4923;52.520;13.494;2023-02-28T03:05:23;-0.50;1.00
9768;DHT22;4923;52.520;13.494;2023-02-28T03:08:10;-0.60;1.00
9768;DHT22;4923;52.520;13.494;2023-02-28T03:11:00;-0.60;1.00
9768;DHT22;4923;52.520;13.494;2023-02-28T03:14:08;-0.60;1.00
9768;DHT22;4923;52.520;13.494;2023-02-28T03:17:20;-0.60;1.00
9768;DHT22;4923;52.520;13.494;2023-02-28T03:20:17;-0.70;1.00
9768;DHT22;4923;52.520;13.494;2023-02-28T03:23:17;-0.80;1.00
9768;DHT22;4923;52.520;13.494;2023-02-28T03:26:12;-0.90;1.00
9768;DHT22;4923;52.520;13.494;2023-02-28T03:29:05;-0.90;1.00
9768;DHT22;4923;52.520;13.494;2023-02-28T03:31:59;-0.90;1.00
9768;DHT22;4923;52.520;13.494;2023-02-28T03:34:54;-0.90;1.00
9768;DHT22;4923;52.520;13.494;2023-02-28T03:37:44;-1.00;1.00
9768;DHT22;4923;52.520;13.494;2023-02-28T03:40:33;-1.00;1.00
9768;DHT22;4923;52.520;13.494;2023-02-28T03:43:26;-1.00;1.00
9768;DHT22;4923;52.520;13.494;2023-02-28T03:46:17;-1.10;1.00
9768;DHT22;4923;52.520;13.494;2023-02-28T03:49:12;-1.10;1.00
9768;DHT22;4923;52.520;13.494;2023-02-28T03:52:02;-1.10;1.00
9768;DHT22;4923;52.520;13.494;2023-02-28T03:54:52;-1.10;1.00
9768;DHT22;4923;52.520;13.494;2023-02-28T03:57:48;-1.10;1.00
9768;DHT22;4923;52.520;13.494;2023-02-28T04:00:42;-1.10;1.00
9768;DHT22;4923;52.520;13.494;2023-02-28T04:03:31;-1.10;1.00
9768;DHT22;4923;52.520;13.494;2023-02-28T04:06:20;-1.20;1.00
9768;DHT22;4923;52.520;13.494;2023-02-28T04:09:09;-1.20;1.00
9768;DHT22;4923;52.520;13.494;2023-02-28T04:11:57;-1.20;1.00
9768;DHT22;4923;52.520;13.494;2023-02-28T04:14:43;-1.20;1.00
9768;DHT22;4923;52.520;13.494;2023-02-28T04:17:31;-1.20;1.00
9768;DHT22;4923;52.520;13.494;2023-02-28T04:20:18;-1.20;1.00
9768;DHT22;4923;52.520;13.494;2023-02-28T04:23:05;-1.30;1.00
9768;DHT22;4923;52.520;13.494;2023-02-28T04:25:54;-1.30;1.00
9768;DHT22;4923;52.520;13.494;2023-02-28T04:28:41;-1.30;1.00
9768;DHT22;4923;52.520;13.494;2023-02-28T04:31:28;-1.40;1.00
9768;DHT22;4923;52.520;13.494;2023-02-28T04:34:16;-1.50;1.00
9768;DHT22;4923;52.520;13.494;2023-02-28T04:37:05;-1.50;1.00
9768;DHT22;4923;52.520;13.494;2023-02-28T04:39:52;-1.50;1.00
9768;DHT22;4923;52.520;13.494;2023-02-28T04:42:39;-1.50;1.00
9768;DHT22;4923;52.520;13.494;2023-02-28T04:45:26;-1.60;1.00
9768;DHT22;4923;52.520;13.494;2023-02-28T04:48:15;-1.70;1.00
9768;DHT22;4923;52.520;13.494;2023-02-28T04:51:05;-1.70;1.00
9768;DHT22;4923;52.520;13.494;2023-02-28T04:53:53;-1.70;1.00
9768;DHT22;4923;52.520;13.494;2023-02-28T04:56:40;-1.70;1.00
9768;DHT22;4923;52.520;13.494;2023-02-28T04:59:27;-1.80;1.00
9768;DHT22;4923;52.520;13.494;2023-02-28T05:02:13;-1.80;1.00
9768;DHT22;4923;52.520;13.494;2023-02-28T05:05:00;-1.80;1.00
9768;DHT22;4923;52.520;13.494;2023-02-28T05:07:48;-1.80;1.00
9768;DHT22;4923;52.520;13.494;2023-02-28T05:10:35;-1.80;1.00
9768;DHT22;4923;52.520;13.494;2023-02-28T05:13:22;-1.80;1.00
9768;DHT22;4923;52.520;13.494;2023-02-28T05:16:09;-1.80;1.00
9768;DHT22;4923;52.520;13.494;2023-02-28T05:18:56;-1.80;1.00
9768;DHT22;4923;52.520;13.494;2023-02-28T05:21:50;-1.90;1.00
9768;DHT22;4923;52.520;13.494;2023-02-28T05:24:38;-1.80;1.00
9768;DHT22;4923;52.520;13.494;2023-02-28T05:27:25;-1.80;1.00
9768;DHT22;4923;52.520;13.494;2023-02-28T05:30:14;-1.90;1.00
9768;DHT22;4923;52.520;13.494;2023-02-28T05:33:01;-1.90;1.00
9768;DHT22;4923;52.520;13.494;2023-02-28T05:35:47;-2.00;1.00
9768;DHT22;4923;52.520;13.494;2023-02-28T05:38:34;-2.00;1.00
9768;DHT22;4923;52.520;13.494;2023-02-28T05:41:22;-2.00;1.00
9768;DHT22;4923;52.520;13.494;2023-02-28T05:44:09;-2.10;1.00
9768;DHT22;4923;52.520;13.494;2023-02-28T05:46:56;-2.00;1.00
9768;DHT22;4923;52.520;13.494;2023-02-28T05:49:43;-1.90;1.00
9768;DHT22;4923;52.520;13.494;2023-02-28T05:52:30;-1.90;1.00
9768;DHT22;4923;52.520;13.494;2023-02-28T05:55:17;-1.90;1.00
9768;DHT22;4923;52.520;13.494;2023-02-28T05:58:06;-1.90;1.00
9768;DHT22;4923;52.520;13.494;2023-02-28T06:00:52;-2.00;1.00
9768;DHT22;4923;52.520;13.494;2023-02-28T06:03:39;-1.90;1.00
9768;DHT22;4923;52.520;13.494;2023-02-28T06:06:26;-1.90;1.00
9768;DHT22;4923;52.520;13.494;2023-02-28T06:09:13;-1.90;1.00
9768;DHT22;4923;52.520;13.494;2023-02-28T06:12:02;-1.70;1.00
9768;DHT22;4923;52.520;13.494;2023-02-28T06:14:52;-1.60;1.00
9768;DHT22;4923;52.520;13.494;2023-02-28T06:17:39;-1.50;1.00
9768;DHT22;4923;52.520;13.494;2023-02-28T06:20:27;-1.40;1.00
9768;DHT22;4923;52.520;13.494;2023-02-28T06:23:15;-1.50;1.00
9768;DHT22;4923;52.520;13.494;2023-02-28T06:26:03;-1.40;1.00
9768;DHT22;4923;52.520;13.494;2023-02-28T06:28:50;-1.50;1.00
9768;DHT22;4923;52.520;13.494;2023-02-28T06:31:38;-1.50;1.00
9768;DHT22;4923;52.520;13.494;2023-02-28T06:34:25;-1.40;1.00
9768;DHT22;4923;52.520;13.494;2023-02-28T06:37:12;-1.30;1.00
9768;DHT22;4923;52.520;13.494;2023-02-28T06:39:59;-1.20;1.00
9768;DHT22;4923;52.520;13.494;2023-02-28T06:42:46;-1.10;1.00
9768;DHT22;4923;52.520;13.494;2023-02-28T06:45:33;-1.10;1.00
9768;DHT22;4923;52.520;13.494;2023-02-28T06:48:21;-1.00;1.00
9768;DHT22;4923;52.520;13.494;2023-02-28T06:51:10;-1.00;1.00
9768;DHT22;4923;52.520;13.494;2023-02-28T06:53:58;-0.90;1.00
9768;DHT22;4923;52.520;13.494;2023-02-28T06:56:45;-0.80;1.00
9768;DHT22;4923;52.520;13.494;2023-02-28T06:59:32;-0.80;1.00
9768;DHT22;4923;52.520;13.494;2023-02-28T07:02:20;-0.70;1.00
9768;DHT22;4923;52.520;13.494;2023-02-28T07:05:09;-0.60;1.00
9768;DHT22;4923;52.520;13.494;2023-02-28T07:07:55;-0.50;1.00
9768;DHT22;4923;52.520;13.494;2023-02-28T07:10:42;-0.40;1.00
9768;DHT22;4923;52.520;13.494;2023-02-28T07:13:29;-0.30;1.00
9768;DHT22;4923;52.520;13.494;2023-02-28T07:16:16;-0.20;1.00
9768;DHT22;4923;52.520;13.494;2023-02-28T07:19:03;0.00;1.00
9768;DHT22;4923;52.520;13.494;2023-02-28T07:21:51;0.10;1.00
9768;DHT22;4923;52.520;13.494;2023-02-28T07:24:38;0.20;1.00
9768;DHT22;4923;52.520;13.494;2023-02-28T07:27:25;0.30;1.00
9768;DHT22;4923;52.520;13.494;2023-02-28T07:30:12;0.50;1.00
9768;DHT22;4923;52.520;13.494;2023-02-28T07:32:59;0.60;1.00
9768;DHT22;4923;52.520;13.494;2023-02-28T07:35:46;0.80;1.00
9768;DHT22;4923;52.520;13.494;2023-02-28T07:38:35;1.00;1.00
9768;DHT22;4923;52.520;13.494;2023-02-28T07:41:22;1.10;1.00
9768;DHT22;4923;52.520;13.494;2023-02-28T07:44:13;1.30;1.00
9768;DHT22;4923;52.520;13.494;2023-02-28T07:46:59;1.50;1.00
9768;DHT22;4923;52.520;13.494;2023-02-28T07:49:46;1.80;1.00
9768;DHT22;4923;52.520;13.494;2023-02-28T07:52:33;2.10;1.00
9768;DHT22;4923;52.520;13.494;2023-02-28T07:55:21;2.20;1.00
9768;DHT22;4923;52.520;13.494;2023-02-28T07:58:08;2.30;1.00
9768;DHT22;4923;52.520;13.494;2023-02-28T08:00:56;2.30;1.00
9768;DHT22;4923;52.520;13.494;2023-02-28T08:03:43;2.40;1.00
9768;DHT22;4923;52.520;13.494;2023-02-28T08:06:29;2.50;1.00
9768;DHT22;4923;52.520;13.494;2023-02-28T08:09:16;2.60;1.00
9768;DHT22;4923;52.520;13.494;2023-02-28T08:12:06;2.70;1.00
9768;DHT22;4923;52.520;13.494;2023-02-28T08:14:53;2.80;1.00
9768;DHT22;4923;52.520;13.494;2023-02-28T08:17:39;2.90;1.00
9768;DHT22;4923;52.520;13.494;2023-02-28T08:20:27;3.00;1.00
9768;DHT22;4923;52.520;13.494;2023-02-28T08:23:14;3.10;1.00
9768;DHT22;4923;52.520;13.494;2023-02-28T08:26:01;3.20;1.00
9768;DHT22;4923;52.520;13.494;2023-02-28T08:28:50;3.30;1.00
9768;DHT22;4923;52.520;13.494;2023-02-28T08:31:37;3.40;1.00
9768;DHT22;4923;52.520;13.494;2023-02-28T08:34:24;3.40;1.00
9768;DHT22;4923;52.520;13.494;2023-02-28T08:37:11;3.50;1.00
9768;DHT22;4923;52.520;13.494;2023-02-28T08:39:58;3.70;1.00
9768;DHT22;4923;52.520;13.494;2023-02-28T08:42:45;3.70;1.00
9768;DHT22;4923;52.520;13.494;2023-02-28T08:45:33;3.80;1.00
9768;DHT22;4923;52.520;13.494;2023-02-28T08:48:20;3.90;1.00
9768;DHT22;4923;52.520;13.494;2023-02-28T08:51:09;4.00;1.00
9768;DHT22;4923;52.520;13.494;2023-02-28T08:53:59;4.00;1.00
9768;DHT22;4923;52.520;13.494;2023-02-28T08:56:46;4.10;1.00
9768;DHT22;4923;52.520;13.494;2023-02-28T08:59:33;4.30;1.00
9768;DHT22;4923;52.520;13.494;2023-02-28T09:02:21;4.30;1.00
9768;DHT22;4923;52.520;13.494;2023-02-28T09:05:09;4.30;1.00
9768;DHT22;4923;52.520;13.494;2023-02-28T09:07:56;4.30;1.00
9768;DHT22;4923;52.520;13.494;2023-02-28T09:10:43;4.40;1.00
9768;DHT22;4923;52.520;13.494;2023-02-28T09:13:30;4.30;1.00
9768;DHT22;4923;52.520;13.494;2023-02-28T09:16:19;4.30;1.00
9768;DHT22;4923;52.520;13.494;2023-02-28T09:19:10;4.30;1.00
9768;DHT22;4923;52.520;13.494;2023-02-28T09:21:57;4.40;1.00
9768;DHT22;4923;52.520;13.494;2023-02-28T09:24:44;4.50;1.00
9768;DHT22;4923;52.520;13.494;2023-02-28T09:27:31;4.60;1.00
9768;DHT22;4923;52.520;13.494;2023-02-28T09:30:18;4.60;1.00
9768;DHT22;4923;52.520;13.494;2023-02-28T09:33:05;4.60;1.00
9768;DHT22;4923;52.520;13.494;2023-02-28T09:35:58;4.70;1.00
9768;DHT22;4923;52.520;13.494;2023-02-28T09:38:45;4.70;1.00
9768;DHT22;4923;52.520;13.494;2023-02-28T09:41:37;4.70;1.00
9768;DHT22;4923;52.520;13.494;2023-02-28T09:44:36;4.80;1.00
9768;DHT22;4923;52.520;13.494;2023-02-28T09:47:28;5.00;1.00
9768;DHT22;4923;52.520;13.494;2023-02-28T09:50:28;4.90;1.00
9768;DHT22;4923;52.520;13.494;2023-02-28T09:53:25;5.00;1.00
9768;DHT22;4923;52.520;13.494;2023-02-28T09:56:18;5.10;1.00
9768;DHT22;4923;52.520;13.494;2023-02-28T09:59:20;5.20;1.00
9768;DHT22;4923;52.520;13.494;2023-02-28T10:02:23;5.10;1.00
9768;DHT22;4923;52.520;13.494;2023-02-28T10:05:23;5.20;1.00
9768;DHT22;4923;52.520;13.494;2023-02-28T10:08:14;5.20;1.00
9768;DHT22;4923;52.520;13.494;2023-02-28T10:11:07;5.20;1.00
9768;DHT22;4923;52.520;13.494;2023-02-28T10:13:56;5.40;1.00
9768;DHT22;4923;52.520;13.494;2023-02-28T10:16:50;5.40;1.00
9768;DHT22;4923;52.520;13.494;2023-02-28T10:19:44;5.40;1.00
9768;DHT22;4923;52.520;13.494;2023-02-28T10:22:38;5.40;1.00
9768;DHT22;4923;52.520;13.494;2023-02-28T10:25:29;5.20;1.00
9768;DHT22;4923;52.520;13.494;2023-02-28T10:28:17;5.20;1.00
9768;DHT22;4923;52.520;13.494;2023-02-28T10:31:04;5.10;1.00
9768;DHT22;4923;52.520;13.494;2023-02-28T10:33:51;5.10;1.00
9768;DHT22;4923;52.520;13.494;2023-02-28T10:36:38;5.10;1.00
9768;DHT22;4923;52.520;13.494;2023-02-28T10:39:40;5.20;1.00
9768;DHT22;4923;52.520;13.494;2023-02-28T10:42:29;5.20;1.00
9768;DHT22;4923;52.520;13.494;2023-02-28T10:45:17;5.40;1.00
9768;DHT22;4923;52.520;13.494;2023-02-28T10:51:11;5.20;1.00
9768;DHT22;4923;52.520;13.494;2023-02-28T10:53:58;5.20;1.00
9768;DHT22;4923;52.520;13.494;2023-02-28T10:56:45;5.10;1.00
9768;DHT22;4923;52.520;13.494;2023-02-28T10:59:32;5.00;1.00
9768;DHT22;4923;52.520;13.494;2023-02-28T11:02:32;4.90;1.00
9768;DHT22;4923;52.520;13.494;2023-02-28T11:05:24;5.00;1.00
9768;DHT22;4923;52.520;13.494;2023-02-28T11:08:13;5.10;1.00
9768;DHT22;4923;52.520;13.494;2023-02-28T11:11:05;5.00;1.00
9768;DHT22;4923;52.520;13.494;2023-02-28T11:13:54;4.90;1.00
9768;DHT22;4923;52.520;13.494;2023-02-28T11:16:41;5.10;1.00
9768;DHT22;4923;52.520;13.494;2023-02-28T11:19:35;5.00;1.00
9768;DHT22;4923;52.520;13.494;2023-02-28T11:22:27;4.80;1.00
9768;DHT22;4923;52.520;13.494;2023-02-28T11:25:20;4.80;1.00
9768;DHT22;4923;52.520;13.494;2023-02-28T11:28:24;4.80;1.00
9768;DHT22;4923;52.520;13.494;2023-02-28T11:31:17;4.90;1.00
9768;DHT22;4923;52.520;13.494;2023-02-28T11:34:23;5.00;1.00
9768;DHT22;4923;52.520;13.494;2023-02-28T11:37:14;5.10;1.00
9768;DHT22;4923;52.520;13.494;2023-02-28T11:40:02;5.20;1.00
9768;DHT22;4923;52.520;13.494;2023-02-28T11:43:01;5.10;1.00
9768;DHT22;4923;52.520;13.494;2023-02-28T11:46:04;5.10;1.00
9768;DHT22;4923;52.520;13.494;2023-02-28T11:49:02;5.00;1.00
9768;DHT22;4923;52.520;13.494;2023-02-28T11:51:55;5.10;1.00
9768;DHT22;4923;52.520;13.494;2023-02-28T11:55:01;5.20;1.00
9768;DHT22;4923;52.520;13.494;2023-02-28T11:58:14;5.30;1.00
9768;DHT22;4923;52.520;13.494;2023-02-28T12:01:26;5.30;1.00
9768;DHT22;4923;52.520;13.494;2023-02-28T12:04:24;5.50;1.00
9768;DHT22;4923;52.520;13.494;2023-02-28T12:07:18;5.40;1.00
9768;DHT22;4923;52.520;13.494;2023-02-28T12:10:20;5.50;1.00
9768;DHT22;4923;52.520;13.494;2023-02-28T12:13:15;5.40;1.00
9768;DHT22;4923;52.520;13.494;2023-02-28T12:16:26;5.40;1.00
9768;DHT22;4923;52.520;13.494;2023-02-28T12:19:19;5.50;1.00
9768;DHT22;4923;52.520;13.494;2023-02-28T12:22:20;5.50;1.00
9768;DHT22;4923;52.520;13.494;2023-02-28T12:25:38;5.40;1.00
9768;DHT22;4923;52.520;13.494;2023-02-28T12:28:31;5.40;1.00
9768;DHT22;4923;52.520;13.494;2023-02-28T12:31:21;5.40;1.00
9768;DHT22;4923;52.520;13.494;2023-02-28T12:34:13;5.40;1.00
9768;DHT22;4923;52.520;13.494;2023-02-28T12:37:06;5.50;1.00
9768;DHT22;4923;52.520;13.494;2023-02-28T12:40:00;5.40;1.00
9768;DHT22;4923;52.520;13.494;2023-02-28T12:42:56;5.30;1.00
9768;DHT22;4923;52.520;13.494;2023-02-28T12:45:46;5.30;1.00
9768;DHT22;4923;52.520;13.494;2023-02-28T12:48:39;5.40;1.00
9768;DHT22;4923;52.520;13.494;2023-02-28T12:51:27;5.60;1.00
9768;DHT22;4923;52.520;13.494;2023-02-28T12:54:21;5.60;1.00
9768;DHT22;4923;52.520;13.494;2023-02-28T12:57:13;5.60;1.00
9768;DHT22;4923;52.520;13.494;2023-02-28T13:00:09;5.70;1.00
9768;DHT22;4923;52.520;13.494;2023-02-28T13:03:15;5.90;1.00
9768;DHT22;4923;52.520;13.494;2023-02-28T13:06:45;5.90;1.00
9768;DHT22;4923;52.520;13.494;2023-02-28T13:09:39;6.00;1.00
9768;DHT22;4923;52.520;13.494;2023-02-28T13:12:26;6.10;1.00
9768;DHT22;4923;52.520;13.494;2023-02-28T13:15:18;6.10;1.00
9768;DHT22;4923;52.520;13.494;2023-02-28T13:18:28;5.90;1.00
9768;DHT22;4923;52.520;13.494;2023-02-28T13:21:23;5.80;1.00
9768;DHT22;4923;52.520;13.494;2023-02-28T13:24:11;5.80;1.00
9768;DHT22;4923;52.520;13.494;2023-02-28T13:27:38;5.90;1.00
9768;DHT22;4923;52.520;13.494;2023-02-28T13:31:02;5.80;1.00
9768;DHT22;4923;52.520;13.494;2023-02-28T13:34:12;5.80;1.00
9768;DHT22;4923;52.520;13.494;2023-02-28T13:37:33;5.80;1.00
9768;DHT22;4923;52.520;13.494;2023-02-28T13:40:30;5.80;1.00
9768;DHT22;4923;52.520;13.494;2023-02-28T13:43:59;5.80;1.00
9768;DHT22;4923;52.520;13.494;2023-02-28T13:47:19;5.70;1.00
9768;DHT22;4923;52.520;13.494;2023-02-28T13:50:18;5.80;1.00
9768;DHT22;4923;52.520;13.494;2023-02-28T13:53:39;5.80;1.00
9768;DHT22;4923;52.520;13.494;2023-02-28T13:56:39;5.80;1.00
9768;DHT22;4923;52.520;13.494;2023-02-28T13:59:34;5.70;1.00
9768;DHT22;4923;52.520;13.494;2023-02-28T14:02:50;5.70;1.00
9768;DHT22;4923;52.520;13.494;2023-02-28T14:05:39;5.70;1.00
9768;DHT22;4923;52.520;13.494;2023-02-28T14:08:26;5.80;1.00
9768;DHT22;4923;52.520;13.494;2023-02-28T14:11:25;5.80;1.00
9768;DHT22;4923;52.520;13.494;2023-02-28T14:14:54;5.80;1.00
9768;DHT22;4923;52.520;13.494;2023-02-28T14:17:42;5.70;1.00
9768;DHT22;4923;52.520;13.494;2023-02-28T14:20:31;5.70;1.00
9768;DHT22;4923;52.520;13.494;2023-02-28T14:23:32;5.70;1.00
9768;DHT22;4923;52.520;13.494;2023-02-28T14:26:32;5.70;1.00
9768;DHT22;4923;52.520;13.494;2023-02-28T14:30:01;5.70;1.00
9768;DHT22;4923;52.520;13.494;2023-02-28T14:33:00;5.80;1.00
9768;DHT22;4923;52.520;13.494;2023-02-28T14:35:57;5.80;1.00
9768;DHT22;4923;52.520;13.494;2023-02-28T14:38:49;5.70;1.00
9768;DHT22;4923;52.520;13.494;2023-02-28T14:41:39;5.70;1.00
9768;DHT22;4923;52.520;13.494;2023-02-28T14:44:27;5.80;1.00
9768;DHT22;4923;52.520;13.494;2023-02-28T14:47:16;5.90;1.00
9768;DHT22;4923;52.520;13.494;2023-02-28T14:50:04;5.80;1.00
9768;DHT22;4923;52.520;13.494;2023-02-28T14:52:53;5.90;1.00
9768;DHT22;4923;52.520;13.494;2023-02-28T14:55:44;5.80;1.00
9768;DHT22;4923;52.520;13.494;2023-02-28T14:58:33;5.80;1.00
9768;DHT22;4923;52.520;13.494;2023-02-28T15:01:21;5.80;1.00
9768;DHT22;4923;52.520;13.494;2023-02-28T15:04:21;5.80;1.00
9768;DHT22;4923;52.520;13.494;2023-02-28T15:07:11;5.60;1.00
9768;DHT22;4923;52.520;13.494;2023-02-28T15:10:12;5.50;1.00
9768;DHT22;4923;52.520;13.494;2023-02-28T15:13:01;5.50;1.00
9768;DHT22;4923;52.520;13.494;2023-02-28T15:15:52;5.50;1.00
9768;DHT22;4923;52.520;13.494;2023-02-28T15:18:45;5.50;1.00
9768;DHT22;4923;52.520;13.494;2023-02-28T15:21:37;5.50;1.00
9768;DHT22;4923;52.520;13.494;2023-02-28T15:24:32;5.50;1.00
9768;DHT22;4923;52.520;13.494;2023-02-28T15:27:23;5.50;1.00
9768;DHT22;4923;52.520;13.494;2023-02-28T15:30:16;5.40;1.00
9768;DHT22;4923;52.520;13.494;2023-02-28T15:33:07;5.40;1.00
9768;DHT22;4923;52.520;13.494;2023-02-28T15:36:06;5.40;1.00
9768;DHT22;4923;52.520;13.494;2023-02-28T15:38:55;5.40;1.00
9768;DHT22;4923;52.520;13.494;2023-02-28T15:41:42;5.30;1.00
9768;DHT22;4923;52.520;13.494;2023-02-28T15:44:33;5.20;1.00
9768;DHT22;4923;52.520;13.494;2023-02-28T15:47:22;5.20;1.00
9768;DHT22;4923;52.520;13.494;2023-02-28T15:50:12;5.20;1.00
9768;DHT22;4923;52.520;13.494;2023-02-28T15:53:01;5.10;1.00
9768;DHT22;4923;52.520;13.494;2023-02-28T15:56:00;5.10;1.00
9768;DHT22;4923;52.520;13.494;2023-02-28T15:58:48;5.00;1.00
9768;DHT22;4923;52.520;13.494;2023-02-28T16:01:36;5.00;1.00
9768;DHT22;4923;52.520;13.494;2023-02-28T16:04:23;5.00;1.00
9768;DHT22;4923;52.520;13.494;2023-02-28T16:07:15;4.90;1.00
9768;DHT22;4923;52.520;13.494;2023-02-28T16:10:02;4.80;1.00
9768;DHT22;4923;52.520;13.494;2023-02-28T16:12:52;4.80;1.00
9768;DHT22;4923;52.520;13.494;2023-02-28T16:15:42;4.70;1.00
9768;DHT22;4923;52.520;13.494;2023-02-28T16:18:29;4.60;1.00
9768;DHT22;4923;52.520;13.494;2023-02-28T16:21:16;4.60;1.00
9768;DHT22;4923;52.520;13.494;2023-02-28T16:24:03;4.50;1.00
9768;DHT22;4923;52.520;13.494;2023-02-28T16:26:52;4.40;1.00
9768;DHT22;4923;52.520;13.494;2023-02-28T16:29:41;4.30;1.00
9768;DHT22;4923;52.520;13.494;2023-02-28T16:32:28;4.20;1.00
9768;DHT22;4923;52.520;13.494;2023-02-28T16:35:16;4.10;1.00
9768;DHT22;4923;52.520;13.494;2023-02-28T16:38:03;4.10;1.00
9768;DHT22;4923;52.520;13.494;2023-02-28T16:40:51;3.90;1.00
9768;DHT22;4923;52.520;13.494;2023-02-28T16:43:38;3.90;1.00
9768;DHT22;4923;52.520;13.494;2023-02-28T16:46:30;3.80;1.00
9768;DHT22;4923;52.520;13.494;2023-02-28T16:49:17;3.70;1.00
9768;DHT22;4923;52.520;13.494;2023-02-28T16:52:04;3.70;1.00
9768;DHT22;4923;52.520;13.494;2023-02-28T16:54:51;3.60;1.00
9768;DHT22;4923;52.520;13.494;2023-02-28T16:57:40;3.50;1.00
9768;DHT22;4923;52.520;13.494;2023-02-28T17:00:28;3.40;1.00
9768;DHT22;4923;52.520;13.494;2023-02-28T17:03:23;3.30;1.00
9768;DHT22;4923;52.520;13.494;2023-02-28T17:06:17;3.20;1.00
9768;DHT22;4923;52.520;13.494;2023-02-28T17:09:05;3.10;1.00
9768;DHT22;4923;52.520;13.494;2023-02-28T17:11:55;3.00;1.00
9768;DHT22;4923;52.520;13.494;2023-02-28T17:14:42;2.90;1.00
9768;DHT22;4923;52.520;13.494;2023-02-28T17:17:29;2.90;1.00
9768;DHT22;4923;52.520;13.494;2023-02-28T17:20:19;2.80;1.00
9768;DHT22;4923;52.520;13.494;2023-02-28T17:23:08;2.80;1.00
9768;DHT22;4923;52.520;13.494;2023-02-28T17:25:55;2.70;1.00
9768;DHT22;4923;52.520;13.494;2023-02-28T17:28:41;2.70;1.00
9768;DHT22;4923;52.520;13.494;2023-02-28T17:31:28;2.60;1.00
9768;DHT22;4923;52.520;13.494;2023-02-28T17:34:17;2.50;1.00
9768;DHT22;4923;52.520;13.494;2023-02-28T17:37:09;2.50;1.00
9768;DHT22;4923;52.520;13.494;2023-02-28T17:39:55;2.50;1.00
9768;DHT22;4923;52.520;13.494;2023-02-28T17:42:42;2.40;1.00
9768;DHT22;4923;52.520;13.494;2023-02-28T17:45:29;2.30;1.00
9768;DHT22;4923;52.520;13.494;2023-02-28T17:48:16;2.40;1.00
9768;DHT22;4923;52.520;13.494;2023-02-28T17:51:03;2.30;1.00
9768;DHT22;4923;52.520;13.494;2023-02-28T17:53:52;2.20;1.00
9768;DHT22;4923;52.520;13.494;2023-02-28T17:56:40;2.10;1.00
9768;DHT22;4923;52.520;13.494;2023-02-28T17:59:28;2.10;1.00
9768;DHT22;4923;52.520;13.494;2023-02-28T18:02:18;2.10;1.00
9768;DHT22;4923;52.520;13.494;2023-02-28T18:05:06;2.00;1.00
9768;DHT22;4923;52.520;13.494;2023-02-28T18:07:54;2.00;1.00
9768;DHT22;4923;52.520;13.494;2023-02-28T18:10:42;2.00;1.00
9768;DHT22;4923;52.520;13.494;2023-02-28T18:13:29;1.90;1.00
9768;DHT22;4923;52.520;13.494;2023-02-28T18:16:17;1.90;1.00
9768;DHT22;4923;52.520;13.494;2023-02-28T18:19:04;1.90;1.00
9768;DHT22;4923;52.520;13.494;2023-02-28T18:21:52;1.90;1.00
9768;DHT22;4923;52.520;13.494;2023-02-28T18:24:39;1.80;1.00
9768;DHT22;4923;52.520;13.494;2023-02-28T18:27:27;1.80;1.00
9768;DHT22;4923;52.520;13.494;2023-02-28T18:30:15;1.70;1.00
9768;DHT22;4923;52.520;13.494;2023-02-28T18:33:02;1.60;1.00
9768;DHT22;4923;52.520;13.494;2023-02-28T18:35:55;1.60;1.00
9768;DHT22;4923;52.520;13.494;2023-02-28T18:38:42;1.60;1.00
9768;DHT22;4923;52.520;13.494;2023-02-28T18:41:30;1.60;1.00
9768;DHT22;4923;52.520;13.494;2023-02-28T18:44:18;1.50;1.00
9768;DHT22;4923;52.520;13.494;2023-02-28T18:47:06;1.40;1.00
9768;DHT22;4923;52.520;13.494;2023-02-28T18:49:53;1.30;1.00
9768;DHT22;4923;52.520;13.494;2023-02-28T18:52:39;1.20;1.00
9768;DHT22;4923;52.520;13.494;2023-02-28T18:55:26;1.40;1.00